Time;durP1;ratioP1;P1;durP2;ratioP2;P2;SDS_P1;SDS_P2;PMS_P1;PMS_P2;Temp;Humidity;BMP_temperature;BMP_pressure;BME280_temperature;BME280_humidity;BME280_pressure;Samples;Min_cycle;Max_cycle;Signal;HPM_P1;HPM_P2
2022/05/25 00:00:31;;;;;;;13.50;7.32;;;10.10;99.90;;;;;;4943366;28;213447;-69
2022/05/25 00:02:57;;;;;;;13.50;6.78;;;10.00;99.90;;;;;;5003390;28;20055;-68
2022/05/25 00:05:23;;;;;;;11.90;6.45;;;10.00;99.90;;;;;;4924292;28;215060;-68
2022/05/25 00:07:49;;;;;;;15.63;7.68;;;10.00;99.90;;;;;;4986159;28;20057;-68
2022/05/25 00:10:15;;;;;;;12.73;6.70;;;10.00;99.90;;;;;;4938783;28;215832;-67
2022/05/25 00:12:41;;;;;;;11.82;7.05;;;10.00;99.90;;;;;;4978865;28;20061;-69
2022/05/25 00:15:10;;;;;;;12.07;7.03;;;10.00;99.90;;;;;;4904441;28;210489;-68
2022/05/25 00:17:36;;;;;;;14.00;8.13;;;10.00;99.90;;;;;;4983718;28;20126;-69
2022/05/25 00:20:03;;;;;;;13.35;8.07;;;10.00;99.90;;;;;;4921792;28;209602;-69
2022/05/25 00:22:49;;;;;;;13.82;8.85;;;10.10;99.90;;;;;;4961560;28;20073;-69
2022/05/25 00:25:19;;;;;;;12.55;8.23;;;10.10;99.90;;;;;;4901504;28;211995;-69
2022/05/25 00:27:46;;;;;;;15.20;8.85;;;10.10;99.90;;;;;;4963476;28;20401;-68
2022/05/25 00:30:12;;;;;;;13.35;8.02;;;10.10;99.90;;;;;;4935003;28;214606;-68
2022/05/25 00:32:40;;;;;;;15.18;8.05;;;10.10;99.90;;;;;;4980349;28;20062;-68
2022/05/25 00:35:08;;;;;;;14.13;8.48;;;10.10;99.90;;;;;;4912881;28;208734;-68
2022/05/25 00:37:34;;;;;;;14.65;8.70;;;10.10;99.90;;;;;;4958595;28;20046;-68
2022/05/25 00:40:01;;;;;;;12.98;8.88;;;10.10;99.90;;;;;;4912015;28;251042;-67
2022/05/25 00:42:27;;;;;;;13.60;7.88;;;10.10;99.90;;;;;;4947218;28;20055;-69
2022/05/25 00:44:54;;;;;;;14.48;8.73;;;10.10;99.90;;;;;;4925485;28;211920;-69
2022/05/25 00:47:26;;;;;;;13.90;8.73;;;10.10;99.90;;;;;;4985005;28;20694;-68
2022/05/25 00:49:52;;;;;;;13.73;8.68;;;10.10;99.90;;;;;;4937423;28;240915;-68
2022/05/25 00:52:19;;;;;;;15.50;8.45;;;10.10;99.90;;;;;;4985937;28;20053;-69
2022/05/25 00:54:49;;;;;;;14.27;8.18;;;10.10;99.90;;;;;;4934014;28;239049;-68
2022/05/25 00:57:24;;;;;;;13.32;8.73;;;10.10;99.90;;;;;;4970542;28;20061;-67
2022/05/25 01:00:04;;;;;;;16.67;8.68;;;10.00;99.90;;;;;;4918148;28;225340;-68
2022/05/25 01:02:32;;;;;;;14.93;9.10;;;10.00;99.90;;;;;;4966399;28;20050;-68
2022/05/25 01:04:59;;;;;;;15.45;9.07;;;10.00;99.90;;;;;;4915054;28;218974;-67
2022/05/25 01:07:47;;;;;;;16.70;9.40;;;10.00;99.90;;;;;;4977121;28;20057;-67
2022/05/25 01:10:44;;;;;;;15.43;8.93;;;10.00;99.90;;;;;;4918090;28;236885;-68
2022/05/25 01:13:13;;;;;;;13.45;9.32;;;10.00;99.90;;;;;;4976037;28;20053;-68
2022/05/25 01:15:48;;;;;;;13.75;8.85;;;10.00;99.90;;;;;;4948801;28;216899;-69
2022/05/25 01:18:34;;;;;;;15.30;9.75;;;10.00;99.90;;;;;;5002313;28;20046;-69
2022/05/25 01:21:12;;;;;;;14.85;9.30;;;10.00;99.90;;;;;;4955722;28;246146;-69
2022/05/25 01:24:03;;;;;;;17.43;10.20;;;10.00;99.90;;;;;;4929853;28;210982;-69
2022/05/25 01:26:47;;;;;;;14.23;10.13;;;9.90;99.90;;;;;;4992466;28;20050;-68
2022/05/25 01:29:39;;;;;;;15.38;9.50;;;9.90;99.90;;;;;;4926756;28;238790;-67
2022/05/25 01:32:22;;;;;;;15.27;10.07;;;10.00;99.90;;;;;;4984942;28;20050;-68
2022/05/25 01:34:48;;;;;;;15.25;10.00;;;9.90;99.90;;;;;;4913208;28;211645;-68
2022/05/25 01:38:08;;;;;;;13.43;9.93;;;9.90;99.90;;;;;;4963449;28;20528;-69
2022/05/25 01:40:58;;;;;;;15.93;10.20;;;9.90;99.90;;;;;;4936108;28;212350;-67
2022/05/25 01:43:48;;;;;;;16.55;9.90;;;9.90;99.90;;;;;;4952577;28;220313;-68
2022/05/25 01:46:19;;;;;;;16.77;10.73;;;9.80;99.90;;;;;;4982666;28;204839;-68
2022/05/25 01:48:47;;;;;;;18.23;10.50;;;9.90;99.90;;;;;;4972663;28;205413;-69
2022/05/25 01:51:47;;;;;;;15.82;10.40;;;9.80;99.90;;;;;;4998689;28;156978;-68
2022/05/25 01:54:18;;;;;;;16.50;10.40;;;9.80;99.90;;;;;;4951956;28;205542;-69
2022/05/25 01:56:50;;;;;;;16.05;11.38;;;9.80;99.90;;;;;;4997794;28;20199;-69
2022/05/25 01:59:19;;;;;;;15.38;10.68;;;9.80;99.90;;;;;;4943214;28;249367;-68
2022/05/25 02:04:19;;;;;;;17.80;10.90;;;9.80;99.90;;;;;;4992618;28;20411;-68
2022/05/25 02:04:40;;;;;;;17.48;10.38;;;9.80;99.90;;;;;;4920136;28;187106;-68
2022/05/25 02:07:29;;;;;;;18.02;10.35;;;9.80;99.90;;;;;;4996567;28;20060;-67
2022/05/25 02:10:08;;;;;;;14.90;10.63;;;9.70;99.90;;;;;;4923021;28;225735;-69
2022/05/25 02:12:55;;;;;;;17.77;11.10;;;9.70;99.90;;;;;;5010315;28;20060;-68
2022/05/25 02:16:11;;;;;;;17.92;11.43;;;9.70;99.90;;;;;;4926365;28;206223;-68
2022/05/25 02:18:50;;;;;;;17.15;11.02;;;9.70;99.90;;;;;;4875541;28;221472;-68
2022/05/25 02:21:30;;;;;;;15.35;11.27;;;9.70;99.90;;;;;;4922188;28;78314;-68
2022/05/25 02:24:40;;;;;;;15.75;11.07;;;9.70;99.90;;;;;;4894167;28;228138;-68
2022/05/25 02:27:11;;;;;;;17.67;11.57;;;9.70;99.90;;;;;;4898072;29;20043;-68
2022/05/25 02:29:47;;;;;;;16.73;11.10;;;9.70;99.90;;;;;;4893738;28;208891;-69
2022/05/25 02:32:16;;;;;;;17.38;11.35;;;9.70;99.90;;;;;;4941539;28;20058;-68
2022/05/25 02:34:46;;;;;;;19.02;11.38;;;9.70;99.90;;;;;;4882682;28;205493;-68
2022/05/25 02:37:13;;;;;;;15.93;11.17;;;9.60;99.90;;;;;;4946655;28;20062;-69
2022/05/25 02:39:41;;;;;;;17.17;11.32;;;9.60;99.90;;;;;;4870315;28;209372;-69
2022/05/25 02:42:15;;;;;;;17.73;10.63;;;9.60;99.90;;;;;;4925745;28;20051;-68
2022/05/25 02:44:43;;;;;;;17.67;11.77;;;9.60;99.90;;;;;;4882180;28;213202;-69
2022/05/25 02:47:10;;;;;;;16.05;11.90;;;9.60;99.90;;;;;;4918920;29;20064;-68
2022/05/25 02:49:37;;;;;;;17.50;11.98;;;9.60;99.90;;;;;;4883606;28;206456;-69
2022/05/25 02:52:05;;;;;;;18.17;12.05;;;9.60;99.90;;;;;;4937795;28;20066;-69
2022/05/25 02:54:31;;;;;;;17.05;12.10;;;9.60;99.90;;;;;;4886978;28;206564;-69
2022/05/25 02:56:57;;;;;;;18.17;12.40;;;9.60;99.90;;;;;;4954384;28;20528;-69
2022/05/25 02:59:23;;;;;;;16.58;12.15;;;9.60;99.90;;;;;;4927499;28;212640;-69
2022/05/25 03:01:49;;;;;;;17.90;12.02;;;9.60;99.90;;;;;;4992637;28;20428;-69
2022/05/25 03:04:16;;;;;;;18.37;12.17;;;9.50;99.90;;;;;;4903789;28;254557;-69
2022/05/25 03:06:42;;;;;;;20.45;13.00;;;9.50;99.90;;;;;;4975220;28;20377;-69
2022/05/25 03:09:08;;;;;;;18.02;12.32;;;9.50;99.90;;;;;;4927128;28;210146;-70
2022/05/25 03:11:34;;;;;;;18.58;12.18;;;9.50;99.90;;;;;;5014288;28;20057;-68
2022/05/25 03:14:00;;;;;;;18.35;12.27;;;9.50;99.90;;;;;;4934101;28;212849;-68
2022/05/25 03:16:26;;;;;;;20.23;13.27;;;9.50;99.90;;;;;;5014899;28;20058;-69
2022/05/25 03:18:53;;;;;;;17.98;12.90;;;9.50;99.90;;;;;;4951074;28;210237;-68
2022/05/25 03:21:20;;;;;;;21.33;13.10;;;9.50;99.90;;;;;;4982326;28;95832;-69
2022/05/25 03:23:46;;;;;;;18.23;12.70;;;9.50;99.90;;;;;;4923488;28;160100;-70
2022/05/25 03:26:12;;;;;;;19.88;13.35;;;9.50;99.90;;;;;;4984431;28;200680;-68
2022/05/25 03:28:38;;;;;;;20.27;13.50;;;9.40;99.90;;;;;;4961793;28;213797;-68
2022/05/25 03:31:05;;;;;;;18.70;13.20;;;9.40;99.90;;;;;;4978926;28;35737;-69
2022/05/25 03:33:32;;;;;;;20.02;13.20;;;9.50;99.90;;;;;;4930977;28;217928;-68
2022/05/25 03:35:58;;;;;;;19.77;13.05;;;9.50;99.90;;;;;;4964365;28;223051;-69
2022/05/25 03:38:27;;;;;;;18.67;13.35;;;9.50;99.90;;;;;;4960565;28;226166;-69
2022/05/25 03:40:53;;;;;;;19.52;12.75;;;9.50;99.90;;;;;;4948407;28;227536;-70
2022/05/25 03:43:20;;;;;;;19.45;13.40;;;9.50;99.90;;;;;;4975902;28;20426;-70
2022/05/25 03:45:47;;;;;;;22.13;13.73;;;9.50;99.90;;;;;;4943845;28;157498;-68
2022/05/25 03:48:14;;;;;;;20.17;12.82;;;9.50;99.90;;;;;;5011866;28;20065;-70
2022/05/25 03:50:42;;;;;;;19.45;13.15;;;9.50;99.90;;;;;;4955979;28;208422;-68
2022/05/25 03:53:12;;;;;;;19.08;12.70;;;9.50;99.90;;;;;;4983215;28;20042;-69
2022/05/25 03:55:39;;;;;;;19.33;13.30;;;9.50;99.90;;;;;;4943933;28;213882;-68
2022/05/25 03:58:05;;;;;;;20.05;13.20;;;9.60;99.90;;;;;;4984040;28;20494;-69
2022/05/25 04:00:32;;;;;;;19.00;13.40;;;9.60;99.90;;;;;;4941345;28;210587;-69
2022/05/25 04:03:02;;;;;;;19.80;12.27;;;9.60;99.90;;;;;;4974946;28;20057;-69
2022/05/25 04:05:32;;;;;;;20.70;13.20;;;9.70;99.90;;;;;;4907050;28;278514;-70
2022/05/25 04:08:00;;;;;;;20.40;12.85;;;9.70;99.90;;;;;;4983841;28;20537;-69
2022/05/25 04:10:27;;;;;;;18.85;12.45;;;9.70;99.90;;;;;;4945980;28;210735;-70
2022/05/25 04:12:54;;;;;;;17.08;12.23;;;9.70;99.90;;;;;;4981864;28;20069;-70
2022/05/25 04:15:26;;;;;;;21.15;12.95;;;9.80;99.90;;;;;;4940495;28;207932;-69
2022/05/25 04:17:53;;;;;;;18.20;12.93;;;9.80;99.90;;;;;;4976450;28;20054;-69
2022/05/25 04:20:20;;;;;;;19.27;12.88;;;9.80;99.90;;;;;;4914704;28;212971;-69
2022/05/25 04:22:47;;;;;;;18.55;12.73;;;9.80;99.90;;;;;;4968293;28;20427;-69
2022/05/25 04:25:17;;;;;;;20.27;12.88;;;9.90;99.90;;;;;;4934761;28;215952;-69
2022/05/25 04:27:46;;;;;;;19.63;12.63;;;9.90;99.90;;;;;;4981942;28;20057;-69
2022/05/25 04:30:15;;;;;;;16.73;12.35;;;9.90;99.90;;;;;;4930911;28;234793;-69
2022/05/25 04:32:42;;;;;;;21.10;13.05;;;9.90;99.90;;;;;;4976300;28;20180;-68
2022/05/25 04:35:09;;;;;;;22.63;12.15;;;10.00;99.90;;;;;;4933508;28;170788;-71
2022/05/25 04:37:54;;;;;;;18.70;12.13;;;10.10;99.90;;;;;;4981459;28;20315;-69
2022/05/25 04:40:28;;;;;;;18.40;12.13;;;10.10;99.90;;;;;;4938199;28;218268;-69
2022/05/25 04:42:56;;;;;;;21.17;12.93;;;10.10;99.90;;;;;;4988547;28;20042;-69
2022/05/25 04:45:25;;;;;;;18.05;12.38;;;10.10;99.90;;;;;;4904592;28;214146;-68
2022/05/25 04:47:52;;;;;;;18.08;12.10;;;10.20;99.90;;;;;;4961105;28;20061;-70
2022/05/25 04:50:21;;;;;;;17.70;11.80;;;10.20;99.90;;;;;;4944180;28;209456;-69
2022/05/25 04:52:47;;;;;;;19.05;12.15;;;10.30;99.90;;;;;;4980229;28;20046;-69
2022/05/25 04:58:01;;;;;;;19.05;12.30;;;10.40;99.90;;;;;;4919496;29;20052;-69
2022/05/25 05:00:28;;;;;;;17.70;12.55;;;10.40;99.90;;;;;;4891010;28;147511;-71
2022/05/25 05:02:54;;;;;;;15.50;11.00;;;10.40;99.90;;;;;;4903000;29;20062;-70
2022/05/25 05:05:21;;;;;;;17.25;11.48;;;10.50;99.90;;;;;;4875499;28;209672;-70
2022/05/25 05:07:47;;;;;;;20.00;11.38;;;10.50;99.90;;;;;;4915553;29;20061;-69
2022/05/25 05:10:13;;;;;;;17.55;11.52;;;10.60;99.90;;;;;;4868054;28;205865;-68
2022/05/25 05:12:41;;;;;;;18.42;11.65;;;10.60;99.90;;;;;;4920385;29;21396;-68
2022/05/25 05:15:08;;;;;;;18.23;12.48;;;10.70;99.90;;;;;;4892580;28;182666;-68
2022/05/25 05:17:34;;;;;;;17.67;11.75;;;10.80;99.90;;;;;;4910556;28;20051;-69
2022/05/25 05:20:00;;;;;;;17.05;11.75;;;10.80;99.90;;;;;;4867811;28;202971;-70
2022/05/25 05:22:26;;;;;;;18.13;11.48;;;10.90;99.90;;;;;;4909821;29;20060;-68
2022/05/25 05:24:53;;;;;;;20.27;11.65;;;10.90;99.90;;;;;;4892231;28;143877;-69
2022/05/25 05:27:19;;;;;;;17.73;11.70;;;11.00;99.90;;;;;;4938187;28;20488;-69
2022/05/25 05:29:45;;;;;;;16.77;12.15;;;11.10;99.90;;;;;;4874769;28;209056;-68
2022/05/25 05:32:12;;;;;;;17.55;11.70;;;11.10;99.90;;;;;;4879006;29;20557;-68
2022/05/25 05:34:39;;;;;;;17.38;11.20;;;11.20;99.90;;;;;;4890177;28;207616;-69
2022/05/25 05:37:18;;;;;;;19.52;11.48;;;11.30;99.90;;;;;;4979937;28;20369;-69
2022/05/25 05:39:48;;;;;;;17.88;11.15;;;11.40;99.90;;;;;;4923659;28;221101;-70
2022/05/25 05:42:17;;;;;;;18.30;11.57;;;11.50;99.90;;;;;;4952980;28;20047;-69
2022/05/25 05:44:50;;;;;;;16.52;10.88;;;11.60;99.90;;;;;;4927500;28;221122;-68
2022/05/25 05:47:26;;;;;;;18.80;11.43;;;11.70;99.90;;;;;;4988387;28;20057;-68
2022/05/25 05:49:53;;;;;;;18.75;11.98;;;11.80;99.90;;;;;;4914068;28;183764;-68
2022/05/25 05:52:19;;;;;;;16.45;11.23;;;11.90;99.90;;;;;;4957667;28;20043;-69
2022/05/25 05:54:46;;;;;;;20.58;11.65;;;12.00;99.90;;;;;;4927770;28;204712;-69
2022/05/25 05:57:13;;;;;;;17.80;11.15;;;12.10;99.90;;;;;;4948375;28;20054;-71
2022/05/25 05:59:40;;;;;;;18.35;12.05;;;12.20;99.90;;;;;;4919360;28;216669;-70
2022/05/25 06:02:07;;;;;;;15.30;9.98;;;12.50;99.90;;;;;;4963953;28;20046;-69
2022/05/25 06:04:33;;;;;;;18.27;10.68;;;12.80;99.90;;;;;;4907406;28;229783;-71
2022/05/25 06:07:00;;;;;;;20.15;10.00;;;13.00;99.90;;;;;;4996006;28;20160;-70
2022/05/25 06:09:26;;;;;;;15.38;9.40;;;13.10;99.90;;;;;;4922069;28;212083;-70
2022/05/25 06:11:52;;;;;;;16.05;9.63;;;13.30;99.90;;;;;;4969086;28;20047;-70
2022/05/25 06:14:18;;;;;;;14.73;8.90;;;13.50;99.90;;;;;;4928457;28;161176;-69
2022/05/25 06:19:31;;;;;;;15.02;8.77;;;13.80;99.90;;;;;;4935578;28;217808;-69
2022/05/25 06:22:07;;;;;;;12.93;8.65;;;14.00;99.90;;;;;;4993798;28;20065;-70
2022/05/25 06:24:42;;;;;;;14.70;8.55;;;14.20;99.90;;;;;;4946092;28;122097;-69
2022/05/25 06:27:10;;;;;;;16.77;8.38;;;14.30;99.90;;;;;;4983299;28;20062;-70
2022/05/25 06:29:38;;;;;;;16.38;8.07;;;14.40;99.90;;;;;;4924842;28;243312;-68
2022/05/25 06:32:09;;;;;;;14.05;7.35;;;14.50;99.90;;;;;;4993319;28;20046;-70
2022/05/25 06:34:37;;;;;;;13.02;7.07;;;14.60;99.90;;;;;;4931487;28;206280;-68
2022/05/25 06:37:04;;;;;;;15.18;7.30;;;14.70;99.90;;;;;;4975588;28;20622;-69
2022/05/25 06:39:36;;;;;;;11.98;6.93;;;14.80;99.90;;;;;;4928315;28;212637;-68
2022/05/25 06:42:03;;;;;;;14.18;6.88;;;15.00;99.90;;;;;;4984929;28;20050;-69
2022/05/25 06:44:29;;;;;;;13.50;6.60;;;15.10;99.90;;;;;;4933559;28;212052;-69
2022/05/25 06:46:55;;;;;;;12.57;6.90;;;15.10;99.90;;;;;;4989366;28;20061;-69
2022/05/25 06:49:22;;;;;;;13.85;7.10;;;15.30;99.90;;;;;;4934180;28;210398;-68
2022/05/25 06:51:48;;;;;;;13.35;7.63;;;15.40;99.90;;;;;;4987118;28;20636;-67
2022/05/25 06:54:16;;;;;;;11.15;6.30;;;15.60;99.90;;;;;;4921608;28;210076;-67
2022/05/25 06:56:42;;;;;;;13.50;6.65;;;15.70;99.90;;;;;;4984479;28;20058;-67
2022/05/25 06:59:09;;;;;;;12.63;6.47;;;15.80;99.90;;;;;;4926565;28;213544;-68
2022/05/25 07:01:38;;;;;;;15.93;6.78;;;15.90;99.90;;;;;;4980449;28;20054;-68
2022/05/25 07:04:05;;;;;;;11.68;6.10;;;15.90;99.90;;;;;;4910562;28;218467;-68
2022/05/25 07:06:33;;;;;;;13.02;6.20;;;16.00;99.90;;;;;;4998987;28;20051;-67
2022/05/25 07:09:00;;;;;;;11.77;6.50;;;16.10;99.90;;;;;;4933489;28;210166;-67
2022/05/25 07:11:26;;;;;;;11.30;5.88;;;16.30;99.90;;;;;;4982322;28;20061;-68
2022/05/25 07:13:52;;;;;;;13.65;6.05;;;16.50;99.90;;;;;;4963241;28;211567;-68
2022/05/25 07:16:20;;;;;;;14.43;6.25;;;16.60;99.90;;;;;;4989190;28;227081;-67
2022/05/25 07:18:47;;;;;;;11.45;5.95;;;16.60;99.90;;;;;;4951160;28;210642;-68
2022/05/25 07:21:19;;;;;;;11.82;5.68;;;16.40;99.90;;;;;;4989471;28;181907;-67
2022/05/25 07:23:48;;;;;;;14.13;6.10;;;16.50;99.90;;;;;;4933214;28;210598;-68
2022/05/25 07:26:16;;;;;;;12.35;5.68;;;16.70;99.90;;;;;;4969457;28;179171;-68
2022/05/25 07:28:42;;;;;;;13.83;6.20;;;16.70;99.90;;;;;;4940243;28;215478;-68
2022/05/25 07:31:15;;;;;;;12.30;6.25;;;16.80;99.90;;;;;;4994753;28;22425;-68
2022/05/25 07:33:44;;;;;;;14.30;6.57;;;17.00;99.90;;;;;;4938222;28;218157;-69
2022/05/25 07:36:11;;;;;;;12.75;5.90;;;17.20;99.90;;;;;;4957922;28;96077;-70
2022/05/25 07:38:44;;;;;;;13.85;6.05;;;17.40;99.90;;;;;;4934566;28;231426;-68
2022/05/25 07:41:10;;;;;;;12.25;5.93;;;17.40;99.90;;;;;;4995344;28;88530;-68
2022/05/25 07:43:40;;;;;;;12.35;6.25;;;17.50;99.90;;;;;;4927139;28;222747;-68
2022/05/25 07:46:06;;;;;;;13.02;5.60;;;17.80;99.90;;;;;;4994764;28;73774;-70
2022/05/25 07:48:32;;;;;;;12.57;5.17;;;17.80;99.90;;;;;;4952160;28;211089;-70
2022/05/25 07:50:59;;;;;;;13.15;5.90;;;18.10;99.90;;;;;;5006116;28;108810;-69
2022/05/25 07:56:10;;;;;;;10.73;5.00;;;18.20;99.90;;;;;;4954684;28;221868;-69
2022/05/25 07:58:36;;;;;;;9.20;4.90;;;18.40;99.90;;;;;;4939841;28;204704;-68
2022/05/25 08:01:17;;;;;;;9.68;4.40;;;18.50;99.90;;;;;;4991304;28;250975;-69
2022/05/25 08:06:33;;;;;;;9.77;3.97;;;18.60;99.90;;;;;;4972809;28;123156;-69
2022/05/25 08:09:00;;;;;;;11.38;4.10;;;18.70;99.90;;;;;;4950608;28;209793;-68
2022/05/25 08:11:27;;;;;;;10.80;4.00;;;18.70;99.90;;;;;;4982780;28;20051;-68
2022/05/25 08:13:55;;;;;;;11.40;3.92;;;18.40;99.90;;;;;;4919699;28;238562;-69
2022/05/25 08:16:24;;;;;;;10.88;3.42;;;18.60;99.90;;;;;;4977070;28;86409;-68
2022/05/25 08:18:50;;;;;;;10.25;4.07;;;18.80;99.40;;;;;;4941864;28;212087;-69
2022/05/25 08:21:16;;;;;;;8.82;3.60;;;19.10;99.90;;;;;;4980169;28;216393;-69
2022/05/25 08:23:42;;;;;;;8.63;3.30;;;19.30;99.90;;;;;;4939467;28;211585;-70
2022/05/25 08:26:09;;;;;;;10.38;3.40;;;19.50;99.90;;;;;;4989258;28;55254;-70
2022/05/25 08:28:35;;;;;;;9.00;3.30;;;19.40;99.40;;;;;;4928407;28;212701;-68
2022/05/25 08:31:01;;;;;;;10.30;3.42;;;19.40;98.60;;;;;;4991035;28;166864;-70
2022/05/25 08:33:27;;;;;;;9.03;3.20;;;19.60;98.50;;;;;;4931813;28;210688;-68
2022/05/25 08:35:53;;;;;;;11.80;4.07;;;19.60;99.60;;;;;;4989878;28;240552;-68
2022/05/25 08:38:21;;;;;;;11.88;3.83;;;19.80;98.30;;;;;;4975989;28;20058;-69
2022/05/25 08:40:48;;;;;;;9.30;3.67;;;20.00;98.60;;;;;;4964149;28;221055;-69
2022/05/25 08:43:28;;;;;;;9.15;3.83;;;20.00;98.70;;;;;;4973054;28;20058;-69
2022/05/25 08:46:02;;;;;;;9.80;3.60;;;20.00;96.30;;;;;;4945960;28;208599;-69
2022/05/25 08:48:30;;;;;;;9.25;3.40;;;19.80;98.40;;;;;;4929029;28;213034;-69
2022/05/25 08:51:06;;;;;;;10.02;3.63;;;19.80;97.80;;;;;;4968047;28;208385;-67
2022/05/25 08:53:34;;;;;;;8.70;3.40;;;19.50;96.60;;;;;;4929901;28;207590;-68
2022/05/25 08:56:22;;;;;;;9.10;3.30;;;19.30;96.90;;;;;;4982368;28;242272;-70
2022/05/25 08:59:10;;;;;;;9.05;3.10;;;19.30;96.30;;;;;;4927704;28;210041;-68
2022/05/25 09:01:47;;;;;;;9.65;3.05;;;19.10;97.60;;;;;;4933549;28;20066;-69
2022/05/25 09:04:37;;;;;;;8.75;3.05;;;19.20;97.30;;;;;;4915040;28;209804;-69
2022/05/25 09:07:32;;;;;;;7.72;2.78;;;19.30;95.90;;;;;;4987973;28;20069;-68
2022/05/25 09:09:58;;;;;;;9.23;2.67;;;19.10;96.90;;;;;;4936681;28;210456;-69
2022/05/25 09:12:40;;;;;;;8.70;2.60;;;19.10;97.40;;;;;;4983355;28;20054;-68
2022/05/25 09:15:09;;;;;;;14.88;3.15;;;19.20;97.00;;;;;;4938193;28;230167;-68
2022/05/25 09:17:41;;;;;;;10.20;3.10;;;19.20;97.10;;;;;;4985028;28;20443;-69
2022/05/25 09:20:09;;;;;;;7.53;2.70;;;19.00;97.50;;;;;;4933591;28;211662;-67
2022/05/25 09:22:37;;;;;;;8.98;2.83;;;19.10;97.70;;;;;;4985306;28;20407;-68
2022/05/25 09:25:06;;;;;;;7.90;2.40;;;19.00;97.20;;;;;;4932534;28;240015;-69
2022/05/25 09:27:39;;;;;;;8.30;2.65;;;18.90;96.60;;;;;;4980452;28;20047;-69
2022/05/25 09:30:09;;;;;;;8.65;2.88;;;19.00;96.80;;;;;;4944098;28;208316;-68
2022/05/25 09:32:53;;;;;;;11.20;2.88;;;19.20;97.00;;;;;;4977434;28;20069;-68
2022/05/25 09:35:27;;;;;;;8.05;2.90;;;19.60;97.50;;;;;;4938159;28;210100;-67
2022/05/25 09:38:00;;;;;;;10.50;2.80;;;19.70;95.00;;;;;;4974402;28;20539;-69
2022/05/25 09:40:44;;;;;;;10.38;2.97;;;19.40;96.50;;;;;;4834565;28;3012965;-68
2022/05/25 09:43:17;;;;;;;11.52;2.70;;;19.50;97.10;;;;;;4987023;28;20051;-70
2022/05/25 09:45:53;;;;;;;8.57;2.42;;;19.80;96.90;;;;;;4941004;28;217203;-69
2022/05/25 09:48:26;;;;;;;9.43;2.50;;;19.90;96.20;;;;;;4974522;28;20066;-68
2022/05/25 09:51:20;;;;;;;8.05;2.30;;;20.00;96.20;;;;;;4954772;28;157526;-67
2022/05/25 09:54:19;;;;;;;7.55;2.45;;;20.10;95.50;;;;;;4933390;28;215010;-68
2022/05/25 09:56:56;;;;;;;9.10;2.55;;;20.20;93.80;;;;;;4972765;28;20415;-67
2022/05/25 09:59:30;;;;;;;6.65;2.30;;;20.10;92.60;;;;;;4940562;28;219466;-68
2022/05/25 10:01:56;;;;;;;9.45;2.50;;;19.80;92.50;;;;;;4999116;28;20058;-68
2022/05/25 10:04:51;;;;;;;8.80;2.58;;;19.70;93.40;;;;;;4922392;28;206824;-69
2022/05/25 10:07:34;;;;;;;7.85;2.10;;;19.80;92.70;;;;;;4961255;28;20518;-68
2022/05/25 10:10:07;;;;;;;8.70;2.55;;;19.60;92.60;;;;;;4917873;28;210599;-67
2022/05/25 10:12:44;;;;;;;7.13;2.17;;;19.30;93.00;;;;;;4963137;28;20051;-67
2022/05/25 10:15:16;;;;;;;7.63;2.08;;;19.30;93.80;;;;;;4933482;28;214894;-69
2022/05/25 10:17:47;;;;;;;8.32;2.03;;;19.20;93.50;;;;;;4979380;28;20526;-67
2022/05/25 10:20:28;;;;;;;8.43;1.98;;;19.20;93.40;;;;;;4942076;28;207175;-66
2022/05/25 10:23:07;;;;;;;7.43;1.80;;;19.30;93.60;;;;;;4981144;28;20058;-67
2022/05/25 10:25:52;;;;;;;9.05;2.10;;;19.20;94.10;;;;;;4947446;28;224300;-68
2022/05/25 10:28:23;;;;;;;7.38;1.98;;;18.90;92.50;;;;;;4975398;28;20058;-68
2022/05/25 10:37:07;;;;;;;7.97;2.20;;;18.70;94.10;;;;;;4968209;28;20050;-68
2022/05/25 10:39:39;;;;;;;9.65;2.28;;;19.00;94.40;;;;;;4903043;28;247520;-69
2022/05/25 10:42:32;;;;;;;9.15;2.00;;;19.40;95.00;;;;;;4960014;28;20058;-68
2022/05/25 10:45:14;;;;;;;7.13;1.90;;;19.90;93.30;;;;;;4884860;28;265338;-65
2022/05/25 10:47:44;;;;;;;10.90;1.70;;;20.00;91.20;;;;;;4962525;28;20505;-68
2022/05/25 10:50:51;;;;;;;8.27;1.88;;;19.90;92.20;;;;;;4919589;28;192086;-67
2022/05/25 10:53:28;;;;;;;9.88;2.20;;;20.10;91.20;;;;;;4980793;28;20062;-64
2022/05/25 10:56:04;;;;;;;9.52;2.25;;;19.90;90.90;;;;;;4907587;28;213363;-67
2022/05/25 10:58:39;;;;;;;8.53;2.57;;;19.60;91.50;;;;;;4917466;28;383094;-66
2022/05/25 11:01:38;;;;;;;8.68;2.50;;;19.30;90.50;;;;;;4947519;28;76721;-64
2022/05/25 11:04:23;;;;;;;8.57;2.70;;;19.10;91.10;;;;;;4879482;28;225629;-65
2022/05/25 11:07:01;;;;;;;7.68;2.33;;;19.30;90.00;;;;;;4935368;28;247256;-66
2022/05/25 11:09:58;;;;;;;7.88;2.25;;;19.20;90.00;;;;;;4928262;28;230715;-66
2022/05/25 11:13:00;;;;;;;9.77;2.20;;;19.30;90.50;;;;;;4988322;28;20063;-66
2022/05/25 11:15:31;;;;;;;7.85;2.55;;;19.30;91.20;;;;;;4933128;28;191417;-64
2022/05/25 11:18:17;;;;;;;9.25;2.83;;;19.20;90.30;;;;;;4987541;28;20050;-67
2022/05/25 11:20:44;;;;;;;10.10;3.47;;;19.40;91.30;;;;;;4938414;28;271496;-68
2022/05/25 11:23:12;;;;;;;14.13;3.70;;;19.50;91.30;;;;;;4986588;28;20050;-65
2022/05/25 11:26:15;;;;;;;12.43;4.30;;;19.70;91.70;;;;;;4954247;28;217026;-67
2022/05/25 11:29:18;;;;;;;11.50;4.50;;;19.60;91.70;;;;;;4932219;28;218936;-66
2022/05/25 11:32:20;;;;;;;10.50;4.00;;;19.30;91.60;;;;;;4972873;28;20050;-63
2022/05/25 11:35:07;;;;;;;12.50;3.60;;;19.00;91.80;;;;;;4923866;28;217223;-67
2022/05/25 11:38:11;;;;;;;9.98;3.92;;;18.70;91.70;;;;;;4982591;28;20058;-66
2022/05/25 11:41:10;;;;;;;12.32;4.43;;;18.60;93.00;;;;;;4961806;28;209202;-66
2022/05/25 11:44:16;;;;;;;10.63;4.28;;;18.20;94.40;;;;;;4924880;28;220685;-67
2022/05/25 11:46:48;;;;;;;11.80;5.00;;;17.70;95.70;;;;;;4959144;28;20054;-65
2022/05/25 11:49:28;;;;;;;14.70;5.30;;;17.50;98.70;;;;;;4930346;28;225195;-69
2022/05/25 11:52:10;;;;;;;9.55;4.32;;;16.80;99.90;;;;;;5006660;28;20149;-73
2022/05/25 11:54:39;;;;;;;10.00;4.18;;;16.10;99.90;;;;;;4928212;28;263497;-71
2022/05/25 11:57:16;;;;;;;8.88;3.10;;;15.50;99.90;;;;;;4995609;28;20059;-72
2022/05/25 12:00:06;;;;;;;9.27;3.47;;;15.40;99.90;;;;;;4955683;28;210006;-71
2022/05/25 12:02:51;;;;;;;8.90;3.92;;;15.40;99.90;;;;;;5019740;28;20058;-71
2022/05/25 12:05:25;;;;;;;11.20;4.20;;;15.50;99.90;;;;;;4942801;28;209134;-71
2022/05/25 12:08:15;;;;;;;10.10;4.60;;;15.80;99.90;;;;;;4988239;28;20523;-70
2022/05/25 12:10:45;;;;;;;10.07;4.23;;;16.20;99.90;;;;;;4970801;28;205866;-71
2022/05/25 12:13:25;;;;;;;8.18;3.33;;;16.50;99.90;;;;;;4981423;28;20061;-72
2022/05/25 12:16:02;;;;;;;10.07;3.03;;;16.70;99.90;;;;;;4950331;28;320143;-70
2022/05/25 12:19:01;;;;;;;10.57;2.90;;;17.10;99.90;;;;;;4938217;28;205733;-70
2022/05/25 12:21:47;;;;;;;8.73;3.10;;;17.20;99.90;;;;;;4954989;28;20049;-71
2022/05/25 12:24:31;;;;;;;10.93;3.10;;;17.20;99.90;;;;;;4939496;28;279003;-70
2022/05/25 12:27:02;;;;;;;12.38;3.70;;;17.30;99.90;;;;;;5006172;28;20073;-70
2022/05/25 12:29:37;;;;;;;;;;;17.70;99.90;;;;;;4938046;28;215486;-70
2022/05/25 12:32:05;;;;;;;9.93;3.55;;;18.10;99.90;;;;;;4986967;28;19930;-70
2022/05/25 12:34:37;;;;;;;9.35;3.33;;;18.50;99.90;;;;;;4939881;28;212473;-71
2022/05/25 12:37:04;;;;;;;21.17;3.65;;;18.70;99.90;;;;;;4991451;28;20050;-71
2022/05/25 12:39:43;;;;;;;11.93;3.30;;;18.70;99.90;;;;;;4937748;28;211908;-69
2022/05/25 12:42:24;;;;;;;11.05;3.33;;;18.60;99.70;;;;;;4991295;28;20061;-71
2022/05/25 12:50:51;;;;;;;7.55;1.90;;;18.50;99.90;;;;;;4928395;28;206123;-69
2022/05/25 12:53:39;;;;;;;9.90;1.90;;;18.50;98.60;;;;;;5012589;28;20058;-69
2022/05/25 12:56:06;;;;;;;11.15;1.45;;;18.70;96.30;;;;;;4934826;28;207371;-70
2022/05/25 12:58:51;;;;;;;8.20;1.30;;;18.70;97.10;;;;;;4937098;28;208804;-69
2022/05/25 13:01:26;;;;;;;11.48;1.75;;;18.80;94.60;;;;;;4978094;28;113786;-69
2022/05/25 13:03:58;;;;;;;8.88;1.50;;;19.10;93.30;;;;;;4943807;28;210441;-70
2022/05/25 13:06:33;;;;;;;8.70;1.30;;;19.40;95.30;;;;;;4975967;28;180189;-70
2022/05/25 13:09:03;;;;;;;9.50;1.67;;;19.50;95.10;;;;;;4934818;28;212458;-70
2022/05/25 13:11:51;;;;;;;7.38;1.38;;;19.60;94.10;;;;;;4983378;28;20046;-70
2022/05/25 13:14:17;;;;;;;8.60;1.07;;;19.60;92.70;;;;;;4926402;28;207370;-70
2022/05/25 13:16:46;;;;;;;8.60;1.10;;;19.60;93.00;;;;;;4993135;28;20038;-70
2022/05/25 13:19:35;;;;;;;7.05;1.15;;;19.80;90.20;;;;;;4927281;28;240757;-69
2022/05/25 13:22:21;;;;;;;8.27;0.90;;;19.60;90.10;;;;;;4982240;28;20411;-69
2022/05/25 13:25:08;;;;;;;9.90;1.10;;;19.30;88.20;;;;;;4939223;28;212084;-70
2022/05/25 13:27:58;;;;;;;5.18;0.90;;;18.90;86.80;;;;;;4980816;28;20065;-69